createdAt,value
2018-06-11T00:01:11.289Z,2.95
2018-06-11T00:03:38.785Z,2.35
2018-06-11T00:06:05.836Z,2.37
2018-06-11T00:08:32.871Z,2.70
2018-06-11T00:11:00.037Z,3.22
2018-06-11T00:13:27.065Z,3.55
2018-06-11T00:15:54.106Z,2.45
2018-06-11T00:18:21.147Z,2.55
2018-06-11T00:20:48.200Z,2.27
2018-06-11T00:23:15.334Z,2.67
2018-06-11T00:25:42.368Z,2.35
2018-06-11T00:28:09.848Z,2.20
2018-06-11T00:30:36.882Z,2.60
2018-06-11T00:33:04.046Z,2.87
2018-06-11T00:35:31.067Z,2.58
2018-06-11T00:37:58.115Z,3.40
2018-06-11T00:40:25.152Z,2.60
2018-06-11T00:42:52.226Z,3.42
2018-06-11T00:45:19.266Z,3.02
2018-06-11T00:47:46.322Z,2.10
2018-06-11T00:50:13.347Z,2.45
2018-06-11T00:52:40.380Z,3.02
2018-06-11T00:55:13.977Z,2.33
2018-06-11T00:57:41.029Z,2.10
2018-06-11T01:00:08.059Z,2.22
2018-06-11T01:02:35.111Z,2.60
2018-06-11T01:05:02.136Z,2.20
2018-06-11T01:07:29.190Z,3.02
2018-06-11T01:09:56.212Z,3.47
2018-06-11T01:12:23.317Z,3.17
2018-06-11T01:14:50.348Z,2.98
2018-06-11T01:17:17.398Z,2.33
2018-06-11T01:19:44.434Z,2.72
2018-06-11T01:22:11.510Z,2.35
2018-06-11T01:24:38.563Z,2.45
2018-06-11T01:27:05.606Z,2.37
2018-06-11T01:29:32.661Z,2.67
2018-06-11T01:31:59.782Z,2.33
2018-06-11T01:34:26.835Z,3.17
2018-06-11T01:36:53.870Z,2.20
2018-06-11T01:39:20.930Z,4.47
2018-06-11T01:41:47.977Z,2.42
2018-06-11T01:44:15.027Z,3.67
2018-06-11T01:46:42.074Z,2.65
2018-06-11T01:49:09.104Z,2.27
2018-06-11T01:51:36.161Z,2.83
2018-06-11T01:54:03.200Z,2.92
2018-06-11T01:56:30.226Z,2.27
2018-06-11T01:58:57.260Z,2.55
2018-06-11T02:01:24.343Z,2.42
2018-06-11T02:03:51.385Z,3.30
2018-06-11T02:06:18.421Z,2.77
2018-06-11T02:08:45.499Z,3.50
2018-06-11T02:11:12.616Z,2.35
2018-06-11T02:13:39.654Z,2.30
2018-06-11T02:16:06.694Z,1.95
2018-06-11T02:18:33.754Z,2.98
2018-06-11T02:21:00.823Z,3.00
2018-06-11T02:23:27.853Z,2.15
2018-06-11T02:25:54.896Z,2.95
2018-06-11T02:28:21.940Z,3.25
2018-06-11T02:30:48.992Z,2.50
2018-06-11T02:33:16.034Z,2.55
2018-06-11T02:35:43.068Z,2.87
2018-06-11T02:38:10.112Z,2.92
2018-06-11T02:40:37.162Z,2.58
2018-06-11T02:43:05.172Z,2.42
2018-06-11T02:45:32.230Z,2.08
2018-06-11T02:47:59.265Z,2.15
2018-06-11T02:50:26.291Z,2.22
2018-06-11T02:52:53.857Z,2.90
2018-06-11T02:55:21.508Z,2.92
2018-06-11T02:57:49.288Z,3.20
2018-06-11T03:00:16.598Z,3.45
2018-06-11T03:02:45.020Z,2.50
2018-06-11T03:05:12.056Z,2.10
2018-06-11T03:07:39.623Z,2.98
2018-06-11T03:10:06.999Z,3.35
2018-06-11T03:12:34.218Z,2.40
2018-06-11T03:15:01.290Z,2.25
2018-06-11T03:17:28.329Z,2.92
2018-06-11T03:19:55.374Z,2.27
2018-06-11T03:22:22.486Z,3.25
2018-06-11T03:24:49.519Z,2.50
2018-06-11T03:27:16.594Z,2.52
2018-06-11T03:29:43.634Z,2.25
2018-06-11T03:32:10.760Z,5.10
2018-06-11T03:34:37.822Z,2.80
2018-06-11T03:37:04.867Z,2.47
2018-06-11T03:39:32.739Z,2.33
2018-06-11T03:41:59.893Z,2.62
2018-06-11T03:44:27.018Z,2.58
2018-06-11T03:46:54.083Z,2.62
2018-06-11T03:49:21.130Z,2.33
2018-06-11T03:51:48.270Z,3.50
2018-06-11T03:54:15.313Z,2.22
2018-06-11T03:56:42.350Z,3.22
2018-06-11T03:59:09.407Z,2.37
2018-06-11T04:01:36.464Z,2.25
2018-06-11T04:04:03.530Z,2.35
2018-06-11T04:06:30.551Z,2.85
2018-06-11T04:08:57.576Z,2.80
2018-06-11T04:11:24.666Z,3.27
2018-06-11T04:13:51.714Z,2.47
2018-06-11T04:16:19.901Z,2.50
2018-06-11T04:18:47.041Z,2.80
2018-06-11T04:21:14.198Z,3.30
2018-06-11T04:23:41.284Z,3.70
2018-06-11T04:26:08.329Z,4.10
2018-06-11T04:28:36.664Z,2.60
2018-06-11T04:31:03.767Z,3.08
2018-06-11T04:33:30.862Z,2.90
2018-06-11T04:35:57.902Z,2.55
2018-06-11T04:38:24.950Z,3.15
2018-06-11T04:40:52.822Z,3.62
2018-06-11T04:43:19.863Z,2.87
2018-06-11T04:45:53.530Z,2.45
2018-06-11T04:48:21.584Z,2.65
2018-06-11T04:50:48.638Z,3.62
2018-06-11T04:53:15.700Z,3.15
2018-06-11T04:55:42.756Z,3.45
2018-06-11T04:58:09.845Z,3.00
2018-06-11T05:00:36.888Z,2.90
2018-06-11T05:03:04.984Z,2.77
2018-06-11T05:05:32.552Z,1.77
2018-06-11T05:07:59.969Z,3.47
2018-06-11T05:10:27.064Z,2.80
2018-06-11T05:12:54.227Z,2.58
2018-06-11T05:15:21.268Z,2.77
2018-06-11T05:17:48.328Z,3.90
2018-06-11T05:20:15.368Z,3.10
2018-06-11T05:22:42.490Z,3.52
2018-06-11T05:25:09.543Z,2.98
2018-06-11T05:27:36.575Z,2.85
2018-06-11T05:30:03.620Z,3.90
2018-06-11T05:32:30.692Z,3.58
2018-06-11T05:34:57.801Z,2.80
2018-06-11T05:37:24.828Z,3.45
2018-06-11T05:39:51.865Z,2.77
2018-06-11T05:42:18.983Z,3.83
2018-06-11T05:44:46.024Z,3.27
2018-06-11T05:47:13.061Z,3.33
2018-06-11T05:49:40.131Z,2.47
2018-06-11T05:52:07.251Z,3.02
2018-06-11T05:54:34.390Z,2.98
2018-06-11T05:57:01.512Z,3.08
2018-06-11T05:59:28.673Z,3.08
2018-06-11T06:01:55.736Z,3.15
2018-06-11T06:04:22.782Z,2.70
2018-06-11T06:06:49.830Z,2.40
2018-06-11T06:09:17.759Z,2.90
2018-06-11T06:11:44.840Z,2.62
2018-06-11T06:14:12.366Z,3.37
2018-06-11T06:16:39.555Z,2.30
2018-06-11T06:19:06.595Z,2.98
2018-06-11T06:21:33.669Z,2.58
2018-06-11T06:24:00.901Z,2.62
2018-06-11T06:26:27.999Z,2.25
2018-06-11T06:28:55.739Z,1.52
2018-06-11T06:31:23.965Z,3.02
2018-06-11T06:33:51.015Z,2.05
2018-06-11T06:36:18.066Z,2.35
2018-06-11T06:38:45.713Z,2.60
2018-06-11T06:41:12.806Z,2.17
2018-06-11T06:43:39.834Z,2.45
2018-06-11T06:46:06.881Z,2.45
2018-06-11T06:48:34.122Z,2.20
2018-06-11T06:51:01.159Z,2.90
2018-06-11T06:53:28.238Z,2.20
2018-06-11T06:55:57.202Z,3.10
2018-06-11T06:58:24.292Z,4.20
2018-06-11T07:00:51.334Z,2.40
2018-06-11T07:03:18.458Z,2.50
2018-06-11T07:05:45.595Z,2.08
2018-06-11T07:08:12.635Z,2.33
2018-06-11T07:10:39.652Z,1.72
2018-06-11T07:13:07.784Z,2.20
2018-06-11T07:15:34.884Z,2.15
2018-06-11T07:18:02.188Z,2.92
2018-06-11T07:20:29.254Z,2.40
2018-06-11T07:22:56.356Z,2.52
2018-06-11T07:25:23.398Z,1.55
2018-06-11T07:27:50.431Z,2.50
2018-06-11T07:30:17.481Z,2.08
2018-06-11T07:32:44.530Z,2.80
2018-06-11T07:35:11.590Z,1.92
2018-06-11T07:37:38.628Z,2.25
2018-06-11T07:40:05.667Z,3.22
2018-06-11T07:42:32.760Z,2.60
2018-06-11T07:44:59.803Z,1.40
2018-06-11T07:47:26.877Z,2.35
2018-06-11T07:49:54.913Z,3.50
2018-06-11T07:52:23.019Z,1.75
2018-06-11T07:54:50.059Z,2.45
2018-06-11T07:57:17.122Z,2.20
2018-06-11T07:59:44.178Z,2.92
2018-06-11T08:02:11.267Z,2.62
2018-06-11T08:04:38.624Z,2.12
2018-06-11T08:07:05.672Z,1.90
2018-06-11T08:09:32.778Z,2.40
2018-06-11T08:11:59.845Z,2.58
2018-06-11T08:14:27.527Z,2.90
2018-06-11T08:17:15.160Z,2.92
2018-06-11T08:19:42.677Z,2.67
2018-06-11T08:22:09.754Z,2.75
2018-06-11T08:24:37.843Z,2.90
2018-06-11T08:27:07.746Z,3.30
2018-06-11T08:29:49.219Z,3.42
2018-06-11T08:32:17.338Z,2.30
2018-06-11T08:34:46.039Z,2.60
2018-06-11T08:37:13.084Z,2.70
2018-06-11T08:40:00.760Z,3.02
2018-06-11T08:42:28.523Z,2.47
2018-06-11T08:44:56.788Z,3.08
2018-06-11T08:47:23.882Z,3.20
2018-06-11T08:49:50.924Z,2.77
2018-06-11T08:52:18.035Z,3.65
2018-06-11T08:57:26.334Z,2.77
2018-06-11T08:59:53.585Z,2.92
2018-06-11T09:05:56.550Z,2.10
2018-06-11T09:08:23.613Z,2.58
2018-06-11T09:10:50.653Z,2.22
2018-06-11T09:13:18.252Z,3.05
2018-06-11T09:15:45.954Z,2.87
2018-06-11T09:18:15.153Z,2.50
2018-06-11T09:20:45.377Z,2.75
2018-06-11T09:23:12.456Z,1.80
2018-06-11T09:25:39.979Z,2.25
2018-06-11T09:28:08.113Z,3.22
2018-06-11T09:30:35.122Z,2.60
2018-06-11T09:33:02.179Z,2.98
2018-06-11T09:35:29.234Z,2.65
2018-06-11T09:37:56.280Z,2.55
2018-06-11T09:40:23.320Z,1.95
2018-06-11T09:42:50.368Z,2.15
2018-06-11T09:45:17.396Z,3.55
2018-06-11T09:47:44.424Z,2.25
2018-06-11T09:50:11.892Z,2.25
2018-06-11T09:52:38.952Z,2.75
2018-06-11T09:55:07.174Z,3.30
2018-06-11T09:57:34.881Z,3.08
2018-06-11T10:00:02.237Z,2.70
2018-06-11T10:02:29.302Z,2.77
2018-06-11T10:04:56.963Z,2.05
2018-06-11T10:07:24.033Z,1.70
2018-06-11T10:09:51.076Z,2.37
2018-06-11T10:12:19.718Z,2.45
2018-06-11T10:14:46.722Z,2.70
2018-06-11T10:17:13.761Z,2.65
2018-06-11T10:19:40.859Z,3.10
2018-06-11T10:22:07.932Z,2.20
2018-06-11T10:24:34.982Z,3.22
2018-06-11T10:27:02.020Z,2.55
2018-06-11T10:29:29.735Z,2.02
2018-06-11T10:31:56.844Z,1.70
2018-06-11T10:34:23.878Z,2.40
2018-06-11T10:36:50.922Z,3.12
2018-06-11T10:39:17.977Z,2.17
2018-06-11T10:41:45.125Z,2.67
2018-06-11T10:44:12.150Z,2.65
2018-06-11T10:46:39.209Z,2.85
2018-06-11T10:49:06.255Z,2.80
2018-06-11T10:51:33.476Z,3.20
2018-06-11T10:54:00.530Z,3.05
2018-06-11T10:56:27.592Z,2.02
2018-06-11T10:58:54.634Z,2.95
2018-06-11T11:01:21.689Z,2.83
2018-06-11T11:03:48.730Z,2.30
2018-06-11T11:06:16.354Z,3.10
2018-06-11T11:08:43.423Z,2.50
2018-06-11T11:11:10.459Z,3.20
2018-06-11T11:13:37.495Z,2.70
2018-06-11T11:16:04.535Z,2.85
2018-06-11T11:18:31.602Z,4.55
2018-06-11T11:20:58.655Z,3.00
2018-06-11T11:23:25.701Z,2.37
2018-06-11T11:25:53.309Z,2.83
2018-06-11T11:28:20.376Z,2.90
2018-06-11T11:30:47.430Z,2.25
2018-06-11T11:33:14.506Z,2.92
2018-06-11T11:35:41.578Z,2.80
2018-06-11T11:38:08.621Z,2.35
2018-06-11T11:40:35.652Z,3.15
2018-06-11T11:43:02.786Z,2.77
2018-06-11T11:45:29.823Z,2.52
2018-06-11T11:47:56.870Z,4.17
2018-06-11T11:50:24.080Z,2.52
2018-06-11T11:52:51.193Z,3.05
2018-06-11T11:55:18.278Z,1.95
2018-06-11T11:57:45.319Z,3.55
2018-06-11T12:00:12.364Z,3.20
2018-06-11T12:02:39.466Z,3.77
2018-06-11T12:05:06.505Z,4.12
2018-06-11T12:07:33.585Z,3.08
2018-06-11T12:10:00.591Z,3.20
2018-06-11T12:12:27.664Z,3.37
2018-06-11T12:14:54.705Z,3.20
2018-06-11T12:17:21.756Z,3.67
2018-06-11T12:19:48.794Z,3.20
2018-06-11T12:22:15.869Z,4.28
2018-06-11T12:24:42.920Z,3.02
2018-06-11T12:27:09.964Z,3.30
2018-06-11T12:29:37.001Z,3.50
2018-06-11T12:32:04.350Z,2.92
2018-06-11T12:34:31.386Z,2.75
2018-06-11T12:36:59.180Z,3.58
2018-06-11T12:39:26.222Z,4.80
2018-06-11T12:41:53.328Z,3.15
2018-06-11T12:44:20.358Z,3.40
2018-06-11T12:46:47.463Z,3.98
2018-06-11T12:49:14.505Z,3.33
2018-06-11T12:51:41.655Z,4.70
2018-06-11T12:54:08.759Z,3.52
2018-06-11T12:56:35.838Z,3.92
2018-06-11T12:59:02.871Z,2.90
2018-06-11T13:01:30.048Z,2.98
2018-06-11T13:03:57.082Z,3.42
2018-06-11T13:06:24.140Z,3.22
2018-06-11T13:08:51.191Z,4.20
2018-06-11T13:11:18.326Z,2.72
2018-06-11T13:13:45.372Z,4.92
2018-06-11T13:16:12.422Z,3.37
2018-06-11T13:18:39.460Z,3.20
2018-06-11T13:21:06.611Z,5.33
2018-06-11T13:23:33.667Z,4.03
2018-06-11T13:26:00.717Z,3.85
2018-06-11T13:28:27.902Z,3.72
2018-06-11T13:30:55.483Z,4.22
2018-06-11T13:33:22.531Z,2.70
2018-06-11T13:35:49.578Z,3.52
2018-06-11T13:38:16.629Z,2.90
2018-06-11T13:40:43.752Z,4.10
2018-06-11T13:43:10.812Z,3.05
2018-06-11T13:45:37.880Z,2.40
2018-06-11T13:48:04.916Z,3.00
2018-06-11T13:50:32.058Z,2.87
2018-06-11T13:52:59.116Z,3.35
2018-06-11T13:55:26.163Z,2.98
2018-06-11T13:57:53.331Z,3.65
2018-06-11T14:00:20.364Z,3.08
2018-06-11T14:02:47.521Z,3.60
2018-06-11T14:05:14.698Z,2.62
2018-06-11T14:07:41.744Z,2.92
2018-06-11T14:10:08.792Z,3.30
2018-06-11T14:12:35.919Z,3.65
2018-06-11T14:15:02.959Z,2.22
2018-06-11T14:17:30.007Z,3.25
2018-06-11T14:19:57.064Z,2.83
2018-06-11T14:22:24.186Z,3.08
2018-06-11T14:24:51.208Z,3.22
2018-06-11T14:27:18.252Z,2.50
2018-06-11T14:29:45.296Z,3.22
2018-06-11T14:32:12.377Z,3.55
2018-06-11T14:34:39.493Z,2.50
2018-06-11T14:37:06.552Z,2.77
2018-06-11T14:39:33.644Z,3.75
2018-06-11T14:42:00.753Z,2.65
2018-06-11T14:44:27.785Z,3.10
2018-06-11T14:46:54.846Z,3.17
2018-06-11T14:49:21.868Z,5.15
2018-06-11T14:51:48.916Z,3.80
2018-06-11T14:54:15.988Z,3.62
2018-06-11T14:56:43.015Z,3.67
2018-06-11T14:59:10.082Z,3.33
2018-06-11T15:01:37.217Z,3.02
2018-06-11T15:04:04.410Z,2.00
2018-06-11T15:06:31.493Z,2.75
2018-06-11T15:08:58.623Z,2.60
2018-06-11T15:11:25.731Z,3.60
2018-06-11T15:13:52.768Z,2.95
2018-06-11T15:16:19.949Z,4.22
2018-06-11T15:18:46.995Z,2.85
2018-06-11T15:21:14.894Z,3.17
2018-06-11T15:23:41.940Z,3.08
2018-06-11T15:26:09.826Z,3.33
2018-06-11T15:28:37.756Z,3.52
2018-06-11T15:31:05.151Z,3.77
2018-06-11T15:33:32.208Z,4.50
2018-06-11T15:35:59.270Z,3.05
2018-06-11T15:38:26.326Z,2.83
2018-06-11T15:40:53.392Z,2.75
2018-06-11T15:43:20.440Z,3.60
2018-06-11T15:45:47.486Z,2.30
2018-06-11T15:48:14.594Z,3.70
2018-06-11T15:50:41.705Z,3.08
2018-06-11T15:53:08.748Z,2.52
2018-06-11T15:55:35.788Z,3.35
2018-06-11T15:58:02.863Z,2.90
2018-06-11T16:00:29.954Z,2.40
2018-06-11T16:02:57.066Z,4.17
2018-06-11T16:05:24.115Z,3.05
2018-06-11T16:07:51.131Z,2.70
2018-06-11T16:10:18.199Z,2.77
2018-06-11T16:12:45.424Z,2.62
2018-06-11T16:15:12.659Z,3.22
2018-06-11T16:17:39.722Z,3.60
2018-06-11T16:20:06.788Z,3.25
2018-06-11T16:22:33.920Z,3.15
2018-06-11T16:25:00.994Z,3.77
2018-06-11T16:27:28.103Z,3.35
2018-06-11T16:29:55.142Z,3.08
2018-06-11T16:32:22.252Z,3.58
2018-06-11T16:34:49.292Z,2.85
2018-06-11T16:37:16.333Z,3.55
2018-06-11T16:39:43.381Z,2.87
2018-06-11T16:42:10.495Z,2.65
2018-06-11T16:44:37.531Z,3.62
2018-06-11T16:47:04.598Z,2.85
2018-06-11T16:49:31.710Z,3.02
2018-06-11T16:51:58.792Z,3.83
2018-06-11T16:54:26.196Z,3.83
2018-06-11T16:56:53.254Z,2.67
2018-06-11T16:59:20.308Z,3.22
2018-06-11T17:01:47.468Z,3.15
2018-06-11T17:04:14.706Z,3.58
2018-06-11T17:06:41.808Z,3.45
2018-06-11T17:09:08.859Z,3.72
2018-06-11T17:11:36.408Z,4.30
2018-06-11T17:14:03.492Z,3.55
2018-06-11T17:16:30.560Z,3.87
2018-06-11T17:18:57.808Z,3.60
2018-06-11T17:21:24.860Z,5.12
2018-06-11T17:23:51.892Z,3.75
2018-06-11T17:26:18.946Z,4.83
2018-06-11T17:28:46.006Z,4.50
2018-06-11T17:31:13.075Z,4.75
2018-06-11T17:33:40.119Z,5.75
2018-06-11T17:36:07.173Z,3.83
2018-06-11T17:38:34.370Z,4.50
2018-06-11T17:41:01.714Z,3.80
2018-06-11T17:43:28.962Z,3.42
2018-06-11T17:45:55.996Z,3.87
2018-06-11T17:48:23.142Z,3.92
2018-06-11T17:50:50.571Z,3.45
2018-06-11T17:53:17.680Z,3.67
2018-06-11T17:55:44.747Z,3.70
2018-06-11T17:58:11.785Z,3.27
2018-06-11T18:00:38.835Z,5.37
2018-06-11T18:03:06.006Z,4.97
2018-06-11T18:05:33.246Z,6.22
2018-06-11T18:08:00.343Z,5.80
2018-06-11T18:10:27.756Z,6.15
2018-06-11T18:12:55.003Z,4.33
2018-06-11T18:15:22.060Z,7.12
2018-06-11T18:17:49.124Z,5.30
2018-06-11T18:20:16.399Z,5.40
2018-06-11T18:22:43.653Z,4.83
2018-06-11T18:25:10.704Z,5.30
2018-06-11T18:27:38.029Z,5.92
2018-06-11T18:30:06.341Z,4.58
2018-06-11T18:32:33.540Z,6.20
2018-06-11T18:35:00.592Z,4.72
2018-06-11T18:37:27.645Z,5.87
2018-06-11T18:39:54.722Z,4.80
2018-06-11T18:42:21.829Z,4.70
2018-06-11T18:44:48.895Z,5.35
2018-06-11T18:47:15.924Z,5.53
2018-06-11T18:49:42.970Z,5.62
2018-06-11T18:52:10.072Z,6.40
2018-06-11T18:54:38.402Z,4.92
2018-06-11T18:57:05.456Z,4.87
2018-06-11T18:59:32.780Z,5.22
2018-06-11T19:01:59.905Z,6.53
2018-06-11T19:04:26.985Z,5.05
2018-06-11T19:06:54.051Z,4.58
2018-06-11T19:09:21.104Z,4.83
2018-06-11T19:11:48.215Z,5.97
2018-06-11T19:14:15.272Z,5.53
2018-06-11T19:16:42.334Z,5.33
2018-06-11T19:19:09.454Z,6.10
2018-06-11T19:21:36.582Z,5.05
2018-06-11T19:24:04.474Z,3.35
2018-06-11T19:26:31.555Z,6.03
2018-06-11T19:28:58.606Z,4.83
2018-06-11T19:31:25.704Z,6.10
2018-06-11T19:33:52.745Z,5.95
2018-06-11T19:36:19.788Z,6.12
2018-06-11T19:38:46.839Z,5.90
2018-06-11T19:41:13.978Z,5.17
2018-06-11T19:43:41.025Z,7.28
2018-06-11T19:46:08.091Z,5.72
2018-06-11T19:48:35.146Z,5.80
2018-06-11T19:51:02.345Z,4.03
2018-06-11T19:53:29.365Z,5.85
2018-06-11T19:55:56.416Z,5.35
2018-06-11T19:58:23.464Z,7.60
2018-06-11T20:00:50.537Z,5.33
2018-06-11T20:03:17.686Z,5.03
2018-06-11T20:05:44.729Z,5.83
2018-06-11T20:08:11.775Z,5.33
2018-06-11T20:10:38.816Z,4.83
2018-06-11T20:13:05.908Z,5.72
2018-06-11T20:15:32.985Z,4.92
2018-06-11T20:18:00.005Z,4.70
2018-06-11T20:20:27.037Z,6.87
2018-06-11T20:22:54.173Z,7.58
2018-06-11T20:25:21.332Z,5.20
2018-06-11T20:27:48.373Z,5.58
2018-06-11T20:30:15.439Z,4.75
2018-06-11T20:32:42.551Z,5.45
2018-06-11T20:35:09.589Z,4.95
2018-06-11T20:37:36.728Z,5.40
2018-06-11T20:40:04.222Z,4.45
2018-06-11T20:42:31.367Z,5.62
2018-06-11T20:44:58.457Z,4.72
2018-06-11T20:47:25.565Z,4.67
2018-06-11T20:49:52.605Z,4.87
2018-06-11T20:52:19.750Z,4.55
2018-06-11T20:54:46.776Z,3.90
2018-06-11T20:57:13.850Z,4.72
2018-06-11T21:12:42.123Z,4.05
2018-06-11T21:24:56.001Z,3.27
2018-06-11T21:27:23.027Z,4.30
2018-06-11T21:29:50.065Z,3.42
2018-06-11T21:32:17.108Z,4.30
2018-06-11T21:34:44.166Z,3.85
2018-06-11T21:37:11.247Z,3.83
2018-06-11T21:39:38.245Z,4.00
2018-06-11T21:42:05.332Z,4.85
2018-06-11T21:44:32.373Z,4.12
2018-06-11T21:46:59.427Z,4.62
2018-06-11T21:49:26.534Z,4.28
2018-06-11T21:51:53.691Z,4.83
2018-06-11T21:54:20.728Z,5.00
2018-06-11T21:56:47.787Z,3.92
2018-06-11T21:59:14.841Z,4.22
2018-06-11T22:01:42.023Z,4.03
2018-06-11T22:04:09.194Z,4.42
2018-06-11T22:06:36.140Z,5.40
2018-06-11T22:09:04.435Z,3.72
2018-06-11T22:11:31.495Z,5.62
2018-06-11T22:13:58.533Z,3.92
2018-06-11T22:16:25.589Z,3.67
2018-06-11T22:18:52.630Z,4.03
2018-06-11T22:21:19.778Z,3.15
2018-06-11T22:23:46.834Z,3.98
2018-06-11T22:26:13.926Z,5.50
2018-06-11T22:28:40.920Z,4.62
2018-06-11T22:31:08.058Z,5.25
2018-06-11T22:33:35.089Z,4.35
2018-06-11T22:36:02.139Z,3.12
2018-06-11T22:38:29.180Z,4.90
2018-06-11T22:40:56.237Z,4.25
2018-06-11T22:43:23.309Z,3.62
2018-06-11T22:45:50.336Z,3.72
2018-06-11T22:48:17.379Z,5.00
2018-06-11T22:50:44.410Z,4.35
2018-06-11T22:53:11.511Z,4.17
2018-06-11T22:55:38.562Z,3.87
2018-06-11T22:58:05.603Z,3.67
2018-06-11T23:00:33.528Z,3.40
2018-06-11T23:03:00.645Z,3.62
2018-06-11T23:05:27.739Z,3.92
2018-06-11T23:07:54.768Z,3.65
2018-06-11T23:10:21.841Z,3.55
2018-06-11T23:12:48.964Z,3.80
2018-06-11T23:15:16.009Z,3.95
2018-06-11T23:17:43.454Z,4.33
2018-06-11T23:20:10.507Z,2.83
2018-06-11T23:22:37.562Z,4.80
2018-06-11T23:25:04.604Z,4.60
2018-06-11T23:27:31.679Z,3.47
2018-06-11T23:29:58.721Z,3.70
2018-06-11T23:32:25.852Z,3.50
2018-06-11T23:34:52.894Z,2.90
2018-06-11T23:37:19.943Z,4.08
2018-06-11T23:39:46.998Z,4.87
2018-06-11T23:42:14.493Z,3.55
2018-06-11T23:44:41.532Z,4.45
2018-06-11T23:47:08.586Z,3.75
2018-06-11T23:49:35.696Z,3.25
2018-06-11T23:52:02.854Z,3.60
2018-06-11T23:54:29.919Z,3.15
2018-06-11T23:56:56.968Z,5.00
2018-06-11T23:59:23.996Z,4.10
